sensor_id;sensor_type;location;lat;lon;timestamp;pressure;altitude;pressure_sealevel;temperature;humidity
69402;BME280;56589;51.992;5.924;2023-01-27T00:00:53;101917.72;;;3.39;78.55
69402;BME280;56589;51.992;5.924;2023-01-27T00:03:22;101917.66;;;3.44;78.22
69402;BME280;56589;51.992;5.924;2023-01-27T00:05:49;101928.81;;;3.47;78.65
69402;BME280;56589;51.992;5.924;2023-01-27T00:08:16;101914.97;;;3.50;78.18
69402;BME280;56589;51.992;5.924;2023-01-27T00:10:42;101905.47;;;3.49;78.04
69402;BME280;56589;51.992;5.924;2023-01-27T00:13:09;101911.50;;;3.48;78.22
69402;BME280;56589;51.992;5.924;2023-01-27T00:15:38;101915.03;;;3.45;78.04
69402;BME280;56589;51.992;5.924;2023-01-27T00:18:04;101918.47;;;3.46;78.28
69402;BME280;56589;51.992;5.924;2023-01-27T00:20:33;101913.34;;;3.43;77.45
69402;BME280;56589;51.992;5.924;2023-01-27T00:22:59;101908.25;;;3.37;77.95
69402;BME280;56589;51.992;5.924;2023-01-27T00:25:25;101914.31;;;3.37;77.91
69402;BME280;56589;51.992;5.924;2023-01-27T00:27:51;101911.75;;;3.34;77.47
69402;BME280;56589;51.992;5.924;2023-01-27T00:30:16;101917.81;;;3.33;77.72
69402;BME280;56589;51.992;5.924;2023-01-27T00:32:42;101910.03;;;3.33;77.72
69402;BME280;56589;51.992;5.924;2023-01-27T00:35:08;101908.34;;;3.30;77.56
69402;BME280;56589;51.992;5.924;2023-01-27T00:37:37;101908.31;;;3.32;77.55
69402;BME280;56589;51.992;5.924;2023-01-27T00:40:03;101911.78;;;3.32;77.87
69402;BME280;56589;51.992;5.924;2023-01-27T00:42:29;101912.63;;;3.33;77.75
69402;BME280;56589;51.992;5.924;2023-01-27T00:44:55;101908.34;;;3.30;77.89
69402;BME280;56589;51.992;5.924;2023-01-27T00:47:21;101908.34;;;3.29;77.77
69402;BME280;56589;51.992;5.924;2023-01-27T00:49:47;101910.97;;;3.27;77.79
69402;BME280;56589;51.992;5.924;2023-01-27T00:52:13;101929.13;;;3.29;77.63
69402;BME280;56589;51.992;5.924;2023-01-27T00:54:41;101917.88;;;3.28;78.11
69402;BME280;56589;51.992;5.924;2023-01-27T00:57:07;101924.78;;;3.29;77.86
69402;BME280;56589;51.992;5.924;2023-01-27T00:59:33;101914.47;;;3.26;77.78
69402;BME280;56589;51.992;5.924;2023-01-27T01:01:58;101921.38;;;3.27;77.91
69402;BME280;56589;51.992;5.924;2023-01-27T01:04:24;101925.75;;;3.24;77.92
69402;BME280;56589;51.992;5.924;2023-01-27T01:06:50;101929.25;;;3.21;77.91
69402;BME280;56589;51.992;5.924;2023-01-27T01:09:16;101930.09;;;3.22;78.26
69402;BME280;56589;51.992;5.924;2023-01-27T01:11:44;101930.94;;;3.22;78.26
69402;BME280;56589;51.992;5.924;2023-01-27T01:14:10;101924.13;;;3.18;77.97
69402;BME280;56589;51.992;5.924;2023-01-27T01:16:36;101930.19;;;3.16;78.27
69402;BME280;56589;51.992;5.924;2023-01-27T01:19:02;101934.56;;;3.14;78.36
69402;BME280;56589;51.992;5.924;2023-01-27T01:21:27;101944.91;;;3.15;78.31
69402;BME280;56589;51.992;5.924;2023-01-27T01:23:53;101943.19;;;3.14;78.24
69402;BME280;56589;51.992;5.924;2023-01-27T01:26:19;101940.59;;;3.14;78.09
69402;BME280;56589;51.992;5.924;2023-01-27T01:28:47;101947.53;;;3.14;77.92
69402;BME280;56589;51.992;5.924;2023-01-27T01:31:15;101944.03;;;3.16;77.89
69402;BME280;56589;51.992;5.924;2023-01-27T01:33:43;101947.47;;;3.17;78.02
69402;BME280;56589;51.992;5.924;2023-01-27T01:36:11;101949.25;;;3.15;77.96
69402;BME280;56589;51.992;5.924;2023-01-27T01:38:39;101951.00;;;3.11;77.86
69402;BME280;56589;51.992;5.924;2023-01-27T01:41:06;101952.75;;;3.12;77.93
69402;BME280;56589;51.992;5.924;2023-01-27T01:43:35;101945.81;;;3.11;78.08
69402;BME280;56589;51.992;5.924;2023-01-27T01:46:04;101947.56;;;3.11;78.07
69402;BME280;56589;51.992;5.924;2023-01-27T01:48:34;101954.47;;;3.13;78.11
69402;BME280;56589;51.992;5.924;2023-01-27T01:51:08;101959.63;;;3.15;77.93
69402;BME280;56589;51.992;5.924;2023-01-27T01:53:41;101951.91;;;3.12;78.27
69402;BME280;56589;51.992;5.924;2023-01-27T01:56:15;101964.88;;;3.12;78.46
69402;BME280;56589;51.992;5.924;2023-01-27T01:58:46;101950.16;;;3.11;78.21
69402;BME280;56589;51.992;5.924;2023-01-27T02:01:17;101953.56;;;3.14;78.18
69402;BME280;56589;51.992;5.924;2023-01-27T02:03:46;101950.09;;;3.15;78.49
69402;BME280;56589;51.992;5.924;2023-01-27T02:06:18;101956.09;;;3.17;78.16
69402;BME280;56589;51.992;5.924;2023-01-27T02:08:46;101950.94;;;3.16;78.30
69402;BME280;56589;51.992;5.924;2023-01-27T02:11:14;101951.84;;;3.15;78.49
69402;BME280;56589;51.992;5.924;2023-01-27T02:13:41;101954.47;;;3.13;78.70
69402;BME280;56589;51.992;5.924;2023-01-27T02:16:09;101954.44;;;3.15;78.38
69402;BME280;56589;51.992;5.924;2023-01-27T02:18:40;101957.03;;;3.15;78.86
69402;BME280;56589;51.992;5.924;2023-01-27T02:21:07;101962.25;;;3.13;78.37
69402;BME280;56589;51.992;5.924;2023-01-27T02:23:45;101963.06;;;3.15;78.56
69402;BME280;56589;51.992;5.924;2023-01-27T02:26:22;101957.84;;;3.18;78.89
69402;BME280;56589;51.992;5.924;2023-01-27T02:28:56;101957.84;;;3.17;78.95
69402;BME280;56589;51.992;5.924;2023-01-27T02:31:24;101956.13;;;3.16;78.94
69402;BME280;56589;51.992;5.924;2023-01-27T02:33:52;101959.63;;;3.15;78.94
69402;BME280;56589;51.992;5.924;2023-01-27T02:36:26;101963.97;;;3.11;79.20
69402;BME280;56589;51.992;5.924;2023-01-27T02:38:55;101967.47;;;3.10;79.37
69402;BME280;56589;51.992;5.924;2023-01-27T02:41:28;101962.28;;;3.10;79.23
69402;BME280;56589;51.992;5.924;2023-01-27T02:43:59;101964.00;;;3.10;79.42
69402;BME280;56589;51.992;5.924;2023-01-27T02:46:25;101964.91;;;3.09;79.02
69402;BME280;56589;51.992;5.924;2023-01-27T02:48:51;101968.38;;;3.08;79.56
69402;BME280;56589;51.992;5.924;2023-01-27T02:51:17;101967.53;;;3.07;79.43
69402;BME280;56589;51.992;5.924;2023-01-27T02:53:43;101971.84;;;3.07;79.23
69402;BME280;56589;51.992;5.924;2023-01-27T02:56:09;101970.16;;;3.06;79.77
69402;BME280;56589;51.992;5.924;2023-01-27T02:58:38;101970.13;;;3.04;79.67
69402;BME280;56589;51.992;5.924;2023-01-27T03:01:04;101973.63;;;3.03;80.01
69402;BME280;56589;51.992;5.924;2023-01-27T03:03:30;101978.84;;;2.98;79.73
69402;BME280;56589;51.992;5.924;2023-01-27T03:05:56;101967.69;;;2.95;80.02
69402;BME280;56589;51.992;5.924;2023-01-27T03:08:21;101982.41;;;2.94;80.36
69402;BME280;56589;51.992;5.924;2023-01-27T03:10:49;101977.22;;;2.94;80.00
69402;BME280;56589;51.992;5.924;2023-01-27T03:13:20;101975.50;;;2.92;80.24
69402;BME280;56589;51.992;5.924;2023-01-27T03:15:49;101983.31;;;2.90;80.33
69402;BME280;56589;51.992;5.924;2023-01-27T03:18:15;101989.31;;;2.92;80.31
69402;BME280;56589;51.992;5.924;2023-01-27T03:20:42;101978.09;;;2.92;80.27
69402;BME280;56589;51.992;5.924;2023-01-27T03:23:10;101989.28;;;2.95;79.91
69402;BME280;56589;51.992;5.924;2023-01-27T03:25:39;101990.16;;;2.96;79.85
69402;BME280;56589;51.992;5.924;2023-01-27T03:28:06;101987.56;;;2.96;80.07
69402;BME280;56589;51.992;5.924;2023-01-27T03:30:32;101990.09;;;2.99;79.89
69402;BME280;56589;51.992;5.924;2023-01-27T03:33:00;101988.41;;;2.96;79.82
69402;BME280;56589;51.992;5.924;2023-01-27T03:35:26;101994.44;;;2.97;79.56
69402;BME280;56589;51.992;5.924;2023-01-27T03:37:52;101985.78;;;2.98;79.46
69402;BME280;56589;51.992;5.924;2023-01-27T03:40:18;101987.50;;;2.99;79.48
69402;BME280;56589;51.992;5.924;2023-01-27T03:42:44;101999.59;;;3.01;79.70
69402;BME280;56589;51.992;5.924;2023-01-27T03:45:10;101996.97;;;3.03;79.66
69402;BME280;56589;51.992;5.924;2023-01-27T03:47:36;101996.97;;;3.03;79.30
69402;BME280;56589;51.992;5.924;2023-01-27T03:50:05;101988.31;;;3.02;79.08
69402;BME280;56589;51.992;5.924;2023-01-27T03:52:31;101991.78;;;3.03;79.07
69402;BME280;56589;51.992;5.924;2023-01-27T03:54:57;101992.63;;;3.03;78.89
69402;BME280;56589;51.992;5.924;2023-01-27T03:57:23;101996.13;;;3.01;79.25
69402;BME280;56589;51.992;5.924;2023-01-27T03:59:48;101990.06;;;3.02;78.96
69402;BME280;56589;51.992;5.924;2023-01-27T04:02:14;101992.59;;;3.05;78.95
69402;BME280;56589;51.992;5.924;2023-01-27T04:04:40;101994.34;;;3.04;78.38
69402;BME280;56589;51.992;5.924;2023-01-27T04:07:09;101986.56;;;3.06;78.50
69402;BME280;56589;51.992;5.924;2023-01-27T04:09:35;101988.28;;;3.07;78.23
69402;BME280;56589;51.992;5.924;2023-01-27T04:12:04;101995.13;;;3.11;78.41
69402;BME280;56589;51.992;5.924;2023-01-27T04:14:32;101997.72;;;3.13;77.93
69402;BME280;56589;51.992;5.924;2023-01-27T04:17:01;102001.13;;;3.15;77.92
69402;BME280;56589;51.992;5.924;2023-01-27T04:19:28;101999.41;;;3.15;77.92
69402;BME280;56589;51.992;5.924;2023-01-27T04:21:55;102010.59;;;3.17;78.06
69402;BME280;56589;51.992;5.924;2023-01-27T04:24:24;102002.81;;;3.17;77.94
69402;BME280;56589;51.992;5.924;2023-01-27T04:26:53;102008.00;;;3.19;78.05
69402;BME280;56589;51.992;5.924;2023-01-27T04:29:21;102004.53;;;3.20;77.64
69402;BME280;56589;51.992;5.924;2023-01-27T04:31:49;102017.44;;;3.23;77.86
69402;BME280;56589;51.992;5.924;2023-01-27T04:34:16;102013.16;;;3.22;77.80
69402;BME280;56589;51.992;5.924;2023-01-27T04:36:42;102017.44;;;3.23;77.86
69402;BME280;56589;51.992;5.924;2023-01-27T04:39:09;102025.25;;;3.21;77.73
69402;BME280;56589;51.992;5.924;2023-01-27T04:41:38;102019.22;;;3.21;77.60
69402;BME280;56589;51.992;5.924;2023-01-27T04:44:05;102024.38;;;3.22;77.71
69402;BME280;56589;51.992;5.924;2023-01-27T04:46:32;102020.03;;;3.23;77.96
69402;BME280;56589;51.992;5.924;2023-01-27T04:48:59;102016.59;;;3.24;77.79
69402;BME280;56589;51.992;5.924;2023-01-27T04:51:26;102019.19;;;3.24;77.54
69402;BME280;56589;51.992;5.924;2023-01-27T04:53:52;102026.94;;;3.25;77.99
69402;BME280;56589;51.992;5.924;2023-01-27T04:56:24;102027.84;;;3.24;78.00
69402;BME280;56589;51.992;5.924;2023-01-27T04:58:57;102025.25;;;3.24;77.84
69402;BME280;56589;51.992;5.924;2023-01-27T05:01:23;102022.63;;;3.24;77.43
69402;BME280;56589;51.992;5.924;2023-01-27T05:03:51;102028.66;;;3.26;77.65
69402;BME280;56589;51.992;5.924;2023-01-27T05:06:17;102026.06;;;3.26;77.94
69402;BME280;56589;51.992;5.924;2023-01-27T05:08:43;102032.94;;;3.30;77.62
69402;BME280;56589;51.992;5.924;2023-01-27T05:11:10;102031.19;;;3.31;77.01
69402;BME280;56589;51.992;5.924;2023-01-27T05:13:36;102030.31;;;3.32;77.53
69402;BME280;56589;51.992;5.924;2023-01-27T05:16:11;102031.13;;;3.34;77.17
69402;BME280;56589;51.992;5.924;2023-01-27T05:18:38;102020.72;;;3.36;77.43
69402;BME280;56589;51.992;5.924;2023-01-27T05:21:06;102022.47;;;3.37;76.94
69402;BME280;56589;51.992;5.924;2023-01-27T05:23:33;102027.59;;;3.40;77.01
69402;BME280;56589;51.992;5.924;2023-01-27T05:26:01;102023.22;;;3.42;76.75
69402;BME280;56589;51.992;5.924;2023-01-27T05:28:29;102018.94;;;3.42;76.73
69402;BME280;56589;51.992;5.924;2023-01-27T05:31:00;102023.22;;;3.42;76.40
69402;BME280;56589;51.992;5.924;2023-01-27T05:33:29;102028.44;;;3.43;76.28
69402;BME280;56589;51.992;5.924;2023-01-27T05:35:58;102034.44;;;3.45;76.60
69402;BME280;56589;51.992;5.924;2023-01-27T05:38:24;102025.81;;;3.45;76.28
69402;BME280;56589;51.992;5.924;2023-01-27T05:40:54;102025.75;;;3.48;76.53
69402;BME280;56589;51.992;5.924;2023-01-27T05:43:20;102033.47;;;3.52;76.68
69402;BME280;56589;51.992;5.924;2023-01-27T05:45:46;102038.63;;;3.54;76.29
69402;BME280;56589;51.992;5.924;2023-01-27T05:48:12;102041.22;;;3.54;76.12
69402;BME280;56589;51.992;5.924;2023-01-27T05:50:40;102031.72;;;3.53;76.60
69402;BME280;56589;51.992;5.924;2023-01-27T05:53:06;102035.22;;;3.52;76.03
69402;BME280;56589;51.992;5.924;2023-01-27T05:55:32;102046.47;;;3.52;76.58
69402;BME280;56589;51.992;5.924;2023-01-27T05:57:58;102042.16;;;3.51;76.52
69402;BME280;56589;51.992;5.924;2023-01-27T06:00:24;102057.75;;;3.50;76.35
69402;BME280;56589;51.992;5.924;2023-01-27T06:02:50;102051.69;;;3.48;76.38
69402;BME280;56589;51.992;5.924;2023-01-27T06:05:15;102049.13;;;3.46;76.60
69402;BME280;56589;51.992;5.924;2023-01-27T06:07:44;102055.25;;;3.44;76.49
69402;BME280;56589;51.992;5.924;2023-01-27T06:10:10;102057.88;;;3.41;76.23
69402;BME280;56589;51.992;5.924;2023-01-27T06:12:36;102058.72;;;3.41;76.28
69402;BME280;56589;51.992;5.924;2023-01-27T06:15:02;102057.88;;;3.41;76.44
69402;BME280;56589;51.992;5.924;2023-01-27T06:17:28;102066.50;;;3.41;76.67
69402;BME280;56589;51.992;5.924;2023-01-27T06:19:54;102070.00;;;3.40;76.79
69402;BME280;56589;51.992;5.924;2023-01-27T06:22:20;102076.94;;;3.40;76.42
69402;BME280;56589;51.992;5.924;2023-01-27T06:24:48;102079.53;;;3.40;76.37
69402;BME280;56589;51.992;5.924;2023-01-27T06:27:14;102073.44;;;3.41;76.67
69402;BME280;56589;51.992;5.924;2023-01-27T06:29:40;102078.66;;;3.39;76.69
69402;BME280;56589;51.992;5.924;2023-01-27T06:32:06;102076.97;;;3.37;76.38
69402;BME280;56589;51.992;5.924;2023-01-27T06:34:31;102077.88;;;3.34;76.49
69402;BME280;56589;51.992;5.924;2023-01-27T06:36:57;102088.28;;;3.32;76.50
69402;BME280;56589;51.992;5.924;2023-01-27T06:39:23;102086.59;;;3.30;76.21
69402;BME280;56589;51.992;5.924;2023-01-27T06:41:51;102086.59;;;3.28;76.64
69402;BME280;56589;51.992;5.924;2023-01-27T06:44:19;102084.88;;;3.27;76.56
69402;BME280;56589;51.992;5.924;2023-01-27T06:46:45;102087.44;;;3.29;76.69
69402;BME280;56589;51.992;5.924;2023-01-27T06:49:11;102084.03;;;3.27;76.63
69402;BME280;56589;51.992;5.924;2023-01-27T06:51:36;102097.00;;;3.27;76.38
69402;BME280;56589;51.992;5.924;2023-01-27T06:54:02;102094.38;;;3.28;76.76
69402;BME280;56589;51.992;5.924;2023-01-27T06:56:28;102101.28;;;3.29;76.55
69402;BME280;56589;51.992;5.924;2023-01-27T06:58:57;102087.47;;;3.27;76.50
69402;BME280;56589;51.992;5.924;2023-01-27T07:01:22;102094.44;;;3.25;76.16
69402;BME280;56589;51.992;5.924;2023-01-27T07:03:48;102084.94;;;3.21;76.47
69402;BME280;56589;51.992;5.924;2023-01-27T07:06:14;102091.09;;;3.14;75.96
69402;BME280;56589;51.992;5.924;2023-01-27T07:08:40;102094.66;;;3.07;76.15
69402;BME280;56589;51.992;5.924;2023-01-27T07:11:06;102095.59;;;3.01;76.02
69402;BME280;56589;51.992;5.924;2023-01-27T07:13:32;102090.50;;;2.94;76.03
69402;BME280;56589;51.992;5.924;2023-01-27T07:16:00;102096.59;;;2.88;76.42
69402;BME280;56589;51.992;5.924;2023-01-27T07:18:26;102097.53;;;2.83;76.15
69402;BME280;56589;51.992;5.924;2023-01-27T07:20:52;102103.66;;;2.75;76.64
69402;BME280;56589;51.992;5.924;2023-01-27T07:23:18;102101.13;;;2.69;76.51
69402;BME280;56589;51.992;5.924;2023-01-27T07:25:45;102107.19;;;2.67;77.00
69402;BME280;56589;51.992;5.924;2023-01-27T07:28:11;102110.72;;;2.63;76.58
69402;BME280;56589;51.992;5.924;2023-01-27T07:30:37;102108.97;;;2.60;76.64
69402;BME280;56589;51.992;5.924;2023-01-27T07:33:09;102112.47;;;2.58;76.68
69402;BME280;56589;51.992;5.924;2023-01-27T07:35:37;102116.81;;;2.54;76.87
69402;BME280;56589;51.992;5.924;2023-01-27T07:38:04;102119.47;;;2.51;76.78
69402;BME280;56589;51.992;5.924;2023-01-27T07:40:30;102116.00;;;2.52;76.90
69402;BME280;56589;51.992;5.924;2023-01-27T07:42:57;102120.28;;;2.56;77.25
69402;BME280;56589;51.992;5.924;2023-01-27T07:45:24;102128.00;;;2.61;77.31
69402;BME280;56589;51.992;5.924;2023-01-27T07:47:50;102134.03;;;2.64;77.24
69402;BME280;56589;51.992;5.924;2023-01-27T07:50:19;102124.47;;;2.68;76.88
69402;BME280;56589;51.992;5.924;2023-01-27T07:52:46;102139.97;;;2.72;76.95
69402;BME280;56589;51.992;5.924;2023-01-27T07:55:13;102126.13;;;2.73;76.59
69402;BME280;56589;51.992;5.924;2023-01-27T07:57:38;102127.00;;;2.72;76.98
69402;BME280;56589;51.992;5.924;2023-01-27T08:00:06;102138.25;;;2.74;76.75
69402;BME280;56589;51.992;5.924;2023-01-27T08:02:33;102134.78;;;2.75;76.58
69402;BME280;56589;51.992;5.924;2023-01-27T08:05:00;102130.44;;;2.76;76.86
69402;BME280;56589;51.992;5.924;2023-01-27T08:07:28;102137.31;;;2.78;76.71
69402;BME280;56589;51.992;5.924;2023-01-27T08:09:55;102132.13;;;2.82;77.07
69402;BME280;56589;51.992;5.924;2023-01-27T08:12:20;102136.41;;;2.84;76.70
69402;BME280;56589;51.992;5.924;2023-01-27T08:14:46;102135.50;;;2.88;76.93
69402;BME280;56589;51.992;5.924;2023-01-27T08:17:12;102134.59;;;2.92;76.64
69402;BME280;56589;51.992;5.924;2023-01-27T08:19:38;102150.97;;;2.97;76.73
69402;BME280;56589;51.992;5.924;2023-01-27T08:22:04;102155.28;;;2.98;76.62
69402;BME280;56589;51.992;5.924;2023-01-27T08:24:32;102155.19;;;3.04;76.89
69402;BME280;56589;51.992;5.924;2023-01-27T08:26:58;102156.94;;;3.06;76.44
69402;BME280;56589;51.992;5.924;2023-01-27T08:29:24;102163.84;;;3.07;76.48
69402;BME280;56589;51.992;5.924;2023-01-27T08:31:50;102166.44;;;3.08;76.30
69402;BME280;56589;51.992;5.924;2023-01-27T08:34:16;102159.47;;;3.10;76.25
69402;BME280;56589;51.992;5.924;2023-01-27T08:36:42;102166.38;;;3.11;75.85
69402;BME280;56589;51.992;5.924;2023-01-27T08:39:09;102176.75;;;3.11;75.98
69402;BME280;56589;51.992;5.924;2023-01-27T08:41:38;102175.03;;;3.10;75.77
69402;BME280;56589;51.992;5.924;2023-01-27T08:44:05;102175.09;;;3.04;75.99
69402;BME280;56589;51.992;5.924;2023-01-27T08:46:31;102170.78;;;3.03;76.10
69402;BME280;56589;51.992;5.924;2023-01-27T08:48:57;102186.34;;;3.06;75.80
69402;BME280;56589;51.992;5.924;2023-01-27T08:51:22;102178.56;;;3.06;76.11
69402;BME280;56589;51.992;5.924;2023-01-27T08:53:48;102184.59;;;3.05;75.47
69402;BME280;56589;51.992;5.924;2023-01-27T08:56:14;102176.88;;;3.02;75.91
69402;BME280;56589;51.992;5.924;2023-01-27T08:58:44;102180.31;;;3.02;76.18
69402;BME280;56589;51.992;5.924;2023-01-27T09:01:10;102177.75;;;3.01;75.63
69402;BME280;56589;51.992;5.924;2023-01-27T09:03:36;102184.66;;;3.02;75.88
69402;BME280;56589;51.992;5.924;2023-01-27T09:06:04;102185.53;;;3.01;76.30
69402;BME280;56589;51.992;5.924;2023-01-27T09:08:33;102187.19;;;3.05;76.16
69402;BME280;56589;51.992;5.924;2023-01-27T09:10:59;102188.03;;;3.09;75.93
69402;BME280;56589;51.992;5.924;2023-01-27T09:13:25;102185.47;;;3.04;76.18
69402;BME280;56589;51.992;5.924;2023-01-27T09:15:53;102200.19;;;3.03;76.27
69402;BME280;56589;51.992;5.924;2023-01-27T09:18:19;102204.59;;;2.97;76.10
69402;BME280;56589;51.992;5.924;2023-01-27T09:20:45;102206.34;;;2.95;76.24
69402;BME280;56589;51.992;5.924;2023-01-27T09:23:11;102217.53;;;2.98;76.08
69402;BME280;56589;51.992;5.924;2023-01-27T09:25:37;102214.09;;;2.99;76.35
69402;BME280;56589;51.992;5.924;2023-01-27T09:28:03;102217.53;;;2.98;76.18
69402;BME280;56589;51.992;5.924;2023-01-27T09:30:29;102232.25;;;2.98;76.10
69402;BME280;56589;51.992;5.924;2023-01-27T09:32:59;102222.78;;;2.95;76.46
69402;BME280;56589;51.992;5.924;2023-01-27T09:35:26;102236.59;;;2.93;76.46
69402;BME280;56589;51.992;5.924;2023-01-27T09:37:58;102226.25;;;2.94;76.18
69402;BME280;56589;51.992;5.924;2023-01-27T09:40:29;102229.66;;;2.96;76.40
69402;BME280;56589;51.992;5.924;2023-01-27T09:43:16;102232.25;;;2.99;76.49
69402;BME280;56589;51.992;5.924;2023-01-27T09:46:16;102246.06;;;3.01;76.74
69402;BME280;56589;51.992;5.924;2023-01-27T09:49:17;102233.06;;;3.03;76.24
69402;BME280;56589;51.992;5.924;2023-01-27T09:52:09;102230.47;;;3.03;76.32
69402;BME280;56589;51.992;5.924;2023-01-27T09:54:55;102233.91;;;3.07;76.76
69402;BME280;56589;51.992;5.924;2023-01-27T09:57:37;102230.38;;;3.11;76.67
69402;BME280;56589;51.992;5.924;2023-01-27T10:00:22;102238.97;;;3.17;76.50
69402;BME280;56589;51.992;5.924;2023-01-27T10:03:21;102230.25;;;3.23;76.34
69402;BME280;56589;51.992;5.924;2023-01-27T10:06:33;102233.75;;;3.22;76.50
69402;BME280;56589;51.992;5.924;2023-01-27T10:09:18;102230.28;;;3.21;76.04
69402;BME280;56589;51.992;5.924;2023-01-27T10:12:10;102231.13;;;3.25;76.13
69402;BME280;56589;51.992;5.924;2023-01-27T10:14:57;102224.19;;;3.27;76.15
69402;BME280;56589;51.992;5.924;2023-01-27T10:17:40;102227.66;;;3.26;75.97
69402;BME280;56589;51.992;5.924;2023-01-27T10:20:25;102223.31;;;3.26;76.15
69402;BME280;56589;51.992;5.924;2023-01-27T10:23:13;102225.91;;;3.26;75.89
69402;BME280;56589;51.992;5.924;2023-01-27T10:25:57;102226.78;;;3.27;76.33
69402;BME280;56589;51.992;5.924;2023-01-27T10:28:30;102221.53;;;3.31;76.64
69402;BME280;56589;51.992;5.924;2023-01-27T10:30:59;102224.94;;;3.37;76.67
69402;BME280;56589;51.992;5.924;2023-01-27T10:33:34;102214.50;;;3.40;76.43
69402;BME280;56589;51.992;5.924;2023-01-27T10:36:16;102219.69;;;3.41;76.02
69402;BME280;56589;51.992;5.924;2023-01-27T10:39:02;102222.28;;;3.41;76.17
69402;BME280;56589;51.992;5.924;2023-01-27T10:41:45;102221.50;;;3.36;75.62
69402;BME280;56589;51.992;5.924;2023-01-27T10:44:33;102219.75;;;3.37;75.92
69402;BME280;56589;51.992;5.924;2023-01-27T10:47:16;102224.09;;;3.36;75.64
69402;BME280;56589;51.992;5.924;2023-01-27T10:49:55;102227.56;;;3.37;75.76
69402;BME280;56589;51.992;5.924;2023-01-27T10:52:29;102232.75;;;3.37;75.65
69402;BME280;56589;51.992;5.924;2023-01-27T10:55:13;102226.66;;;3.38;75.97
69402;BME280;56589;51.992;5.924;2023-01-27T10:57:47;102231.88;;;3.35;75.56
69402;BME280;56589;51.992;5.924;2023-01-27T11:00:26;102225.81;;;3.37;75.49
69402;BME280;56589;51.992;5.924;2023-01-27T11:02:59;102221.41;;;3.41;75.63
69402;BME280;56589;51.992;5.924;2023-01-27T11:05:35;102214.44;;;3.46;75.74
69402;BME280;56589;51.992;5.924;2023-01-27T11:08:10;102223.88;;;3.54;75.98
69402;BME280;56589;51.992;5.924;2023-01-27T11:10:44;102222.03;;;3.63;75.68
69402;BME280;56589;51.992;5.924;2023-01-27T11:13:14;102213.28;;;3.70;75.34
69402;BME280;56589;51.992;5.924;2023-01-27T11:15:41;102209.72;;;3.77;75.09
69402;BME280;56589;51.992;5.924;2023-01-27T11:18:12;102210.50;;;3.83;74.98
69402;BME280;56589;51.992;5.924;2023-01-27T11:20:49;102207.00;;;3.88;75.03
69402;BME280;56589;51.992;5.924;2023-01-27T11:23:21;102216.41;;;3.96;74.90
69402;BME280;56589;51.992;5.924;2023-01-27T11:26:00;102205.06;;;4.02;74.89
69402;BME280;56589;51.992;5.924;2023-01-27T11:28:35;102212.88;;;4.03;74.24
69402;BME280;56589;51.992;5.924;2023-01-27T11:31:14;102203.31;;;4.02;73.68
69402;BME280;56589;51.992;5.924;2023-01-27T11:33:57;102206.78;;;4.04;74.19
69402;BME280;56589;51.992;5.924;2023-01-27T11:36:35;102202.47;;;4.02;73.71
69402;BME280;56589;51.992;5.924;2023-01-27T11:39:08;102191.19;;;4.03;73.98
69402;BME280;56589;51.992;5.924;2023-01-27T11:41:40;102197.31;;;3.99;73.50
69402;BME280;56589;51.992;5.924;2023-01-27T11:44:18;102201.63;;;4.00;73.69
69402;BME280;56589;51.992;5.924;2023-01-27T11:46:48;102194.69;;;4.03;74.01
69402;BME280;56589;51.992;5.924;2023-01-27T11:49:19;102188.53;;;4.07;73.82
69402;BME280;56589;51.992;5.924;2023-01-27T11:51:50;102177.22;;;4.11;73.32
69402;BME280;56589;51.992;5.924;2023-01-27T11:54:20;102184.16;;;4.11;73.43
69402;BME280;56589;51.992;5.924;2023-01-27T11:56:53;102189.31;;;4.16;73.71
69402;BME280;56589;51.992;5.924;2023-01-27T11:59:22;102186.59;;;4.20;73.60
69402;BME280;56589;51.992;5.924;2023-01-27T12:01:56;102183.91;;;4.26;73.94
69402;BME280;56589;51.992;5.924;2023-01-27T12:04:40;102175.22;;;4.29;72.85
69402;BME280;56589;51.992;5.924;2023-01-27T12:07:18;102169.16;;;4.27;73.16
69402;BME280;56589;51.992;5.924;2023-01-27T12:09:51;102169.09;;;4.31;73.41
69402;BME280;56589;51.992;5.924;2023-01-27T12:12:25;102165.56;;;4.37;73.09
69402;BME280;56589;51.992;5.924;2023-01-27T12:14:53;102162.91;;;4.38;72.50
69402;BME280;56589;51.992;5.924;2023-01-27T12:17:26;102172.47;;;4.38;72.60
69402;BME280;56589;51.992;5.924;2023-01-27T12:20:01;102173.31;;;4.38;72.88
69402;BME280;56589;51.992;5.924;2023-01-27T12:22:35;102168.13;;;4.38;72.65
69402;BME280;56589;51.992;5.924;2023-01-27T12:25:05;102162.84;;;4.43;73.08
69402;BME280;56589;51.992;5.924;2023-01-27T12:27:48;102162.75;;;4.49;72.82
69402;BME280;56589;51.992;5.924;2023-01-27T12:30:20;102163.50;;;4.56;73.22
69402;BME280;56589;51.992;5.924;2023-01-27T12:32:48;102158.19;;;4.62;72.68
69402;BME280;56589;51.992;5.924;2023-01-27T12:35:20;102155.53;;;4.66;72.84
69402;BME280;56589;51.992;5.924;2023-01-27T12:37:48;102151.97;;;4.72;72.62
69402;BME280;56589;51.992;5.924;2023-01-27T12:40:22;102147.66;;;4.71;72.33
69402;BME280;56589;51.992;5.924;2023-01-27T12:43:06;102159.84;;;4.68;72.61
69402;BME280;56589;51.992;5.924;2023-01-27T12:45:38;102155.44;;;4.70;72.57
69402;BME280;56589;51.992;5.924;2023-01-27T12:48:19;102161.59;;;4.67;72.12
69402;BME280;56589;51.992;5.924;2023-01-27T12:51:03;102141.81;;;4.57;72.46
69402;BME280;56589;51.992;5.924;2023-01-27T12:53:31;102149.66;;;4.55;72.32
69402;BME280;56589;51.992;5.924;2023-01-27T12:55:59;102153.09;;;4.56;72.65
69402;BME280;56589;51.992;5.924;2023-01-27T12:58:39;102150.50;;;4.56;72.75
69402;BME280;56589;51.992;5.924;2023-01-27T13:01:22;102152.28;;;4.54;72.46
69402;BME280;56589;51.992;5.924;2023-01-27T13:03:51;102157.47;;;4.54;72.67
69402;BME280;56589;51.992;5.924;2023-01-27T13:06:28;102158.41;;;4.50;72.31
69402;BME280;56589;51.992;5.924;2023-01-27T13:08:59;102158.50;;;4.44;72.41
69402;BME280;56589;51.992;5.924;2023-01-27T13:11:33;102158.56;;;4.39;72.32
69402;BME280;56589;51.992;5.924;2023-01-27T13:14:06;102161.25;;;4.36;72.21